createdAt,value
2022-10-12T00:03:54.164Z,96998.00
2022-10-12T00:07:57.167Z,97005.00
2022-10-12T00:12:34.786Z,97003.00
2022-10-12T00:16:39.488Z,97008.00
2022-10-12T00:20:42.503Z,97001.00
2022-10-12T00:24:45.488Z,96998.00
2022-10-12T00:29:07.163Z,97007.00
2022-10-12T00:33:11.606Z,97004.00
2022-10-12T00:37:14.626Z,97000.00
2022-10-12T00:41:51.906Z,96996.00
2022-10-12T00:45:55.129Z,96996.00
2022-10-12T00:50:03.956Z,96991.00
2022-10-12T00:54:10.567Z,96986.00
2022-10-12T00:58:16.562Z,96980.00
2022-10-12T01:02:21.074Z,96983.00
2022-10-12T01:06:56.850Z,96982.00
2022-10-12T01:10:59.938Z,96981.00
2022-10-12T01:15:03.745Z,96975.00
2022-10-12T01:19:16.976Z,96986.00
2022-10-12T01:23:45.239Z,96980.00
2022-10-12T01:27:50.243Z,96987.00
2022-10-12T01:32:00.308Z,96979.00
2022-10-12T01:36:11.119Z,96968.00
2022-10-12T01:40:17.565Z,96977.00
2022-10-12T01:44:24.606Z,96963.00
2022-10-12T01:49:01.135Z,96964.00
2022-10-12T01:53:18.383Z,96958.00
2022-10-12T01:57:32.637Z,96963.00
2022-10-12T02:01:59.822Z,96963.00
2022-10-12T02:06:07.227Z,96958.00
2022-10-12T02:10:25.587Z,96964.00
2022-10-12T02:14:55.215Z,96965.00
2022-10-12T02:19:01.073Z,96961.00
2022-10-12T02:23:04.983Z,96966.00
2022-10-12T02:27:12.497Z,96966.00
2022-10-12T02:31:26.145Z,96955.00
2022-10-12T02:35:54.110Z,96952.00
2022-10-12T02:40:04.224Z,96948.00
2022-10-12T02:44:13.290Z,96947.00
2022-10-12T02:48:21.747Z,96945.00
2022-10-12T02:52:25.652Z,96945.00
2022-10-12T02:56:28.649Z,96941.00
2022-10-12T03:00:35.194Z,96941.00
2022-10-12T03:05:09.027Z,96938.00
2022-10-12T03:09:12.080Z,96934.00
2022-10-12T03:13:48.602Z,96937.00
2022-10-12T03:17:53.106Z,96945.00
2022-10-12T03:21:56.115Z,96951.00
2022-10-12T03:26:33.214Z,96953.00
2022-10-12T03:30:36.342Z,96950.00
2022-10-12T03:35:12.818Z,96953.00
2022-10-12T03:39:17.532Z,96954.00
2022-10-12T03:43:51.285Z,96951.00
2022-10-12T03:47:54.289Z,96948.00
2022-10-12T03:52:30.954Z,96949.00
2022-10-12T03:57:09.297Z,96954.00
2022-10-12T04:01:42.957Z,96953.00
2022-10-12T04:05:46.055Z,96950.00
2022-10-12T04:09:49.118Z,96948.00
2022-10-12T04:13:53.542Z,96944.00
2022-10-12T04:18:27.502Z,96945.00
2022-10-12T04:23:04.125Z,96952.00
2022-10-12T04:27:07.413Z,96955.00
2022-10-12T04:31:11.855Z,96955.00
2022-10-12T04:35:14.916Z,96957.00
2022-10-12T04:39:51.463Z,96963.00
2022-10-12T04:43:54.774Z,96955.00
2022-10-12T04:48:29.956Z,96955.00
2022-10-12T04:52:55.430Z,96957.00
2022-10-12T04:56:58.429Z,96966.00
2022-10-12T05:01:35.138Z,96974.00
2022-10-12T05:05:39.699Z,96970.00
2022-10-12T05:09:42.877Z,96965.00
2022-10-12T05:13:45.932Z,96968.00
2022-10-12T05:17:49.019Z,96960.00
2022-10-12T05:22:26.427Z,96965.00
2022-10-12T05:26:31.143Z,96964.00
2022-10-12T05:30:34.557Z,96966.00
2022-10-12T05:34:37.519Z,96980.00
2022-10-12T05:38:40.513Z,96974.00
2022-10-12T05:42:45.664Z,96965.00
2022-10-12T05:47:19.273Z,96971.00
2022-10-12T05:51:26.571Z,96975.00
2022-10-12T05:56:00.036Z,96973.00
2022-10-12T06:00:06.455Z,96983.00
2022-10-12T06:04:09.555Z,96981.00
2022-10-12T06:08:13.216Z,96983.00
2022-10-12T06:12:49.918Z,96982.00
2022-10-12T06:16:54.636Z,96983.00
2022-10-12T06:21:28.364Z,96991.00
2022-10-12T06:25:20.758Z,96981.00
2022-10-12T06:29:25.025Z,96983.00
2022-10-12T06:33:47.826Z,96982.00
2022-10-12T06:38:22.032Z,96985.00
2022-10-12T06:43:02.709Z,96987.00
2022-10-12T06:47:06.235Z,97000.00
2022-10-12T06:51:10.633Z,97003.00
2022-10-12T06:55:44.849Z,96991.00
2022-10-12T06:59:47.910Z,96999.00
2022-10-12T07:03:50.926Z,97013.00
2022-10-12T07:08:29.165Z,97011.00
2022-10-12T07:12:32.266Z,97018.00
2022-10-12T07:16:35.243Z,97011.00
2022-10-12T07:21:11.917Z,97005.00
2022-10-12T07:25:16.474Z,97011.00
2022-10-12T07:29:19.472Z,97016.00
2022-10-12T07:33:44.065Z,97006.00
2022-10-12T07:37:49.930Z,97011.00
2022-10-12T07:41:55.027Z,97017.00
2022-10-12T07:46:28.849Z,97016.00
2022-10-12T07:50:31.870Z,97013.00
2022-10-12T07:55:11.465Z,97022.00
2022-10-12T07:59:47.735Z,97022.00
2022-10-12T08:03:51.002Z,97019.00
2022-10-12T08:08:28.187Z,97022.00
2022-10-12T08:13:05.287Z,97013.00
2022-10-12T08:17:09.945Z,97019.00
2022-10-12T08:21:43.819Z,97021.00
2022-10-12T08:25:53.388Z,97025.00
2022-10-12T08:30:26.956Z,97026.00
2022-10-12T08:35:05.548Z,97029.00
2022-10-12T08:39:08.857Z,97022.00
2022-10-12T08:43:20.589Z,97022.00
2022-10-12T08:47:51.560Z,97026.00
2022-10-12T08:51:57.915Z,97024.00
2022-10-12T08:56:01.586Z,97022.00
2022-10-12T09:00:35.887Z,97021.00
2022-10-12T09:05:08.966Z,97031.00
2022-10-12T09:09:28.443Z,97026.00
2022-10-12T09:13:43.694Z,97030.00
2022-10-12T09:18:19.633Z,97024.00
2022-10-12T09:22:46.608Z,97019.00
2022-10-12T09:26:55.075Z,97029.00
2022-10-12T09:31:08.628Z,97023.00
2022-10-12T09:35:50.354Z,97022.00
2022-10-12T09:39:53.927Z,97027.00
2022-10-12T09:44:32.614Z,97023.00
2022-10-12T09:48:35.588Z,97025.00
2022-10-12T09:53:24.357Z,97020.00
2022-10-12T09:57:31.588Z,97023.00
2022-10-12T10:02:14.529Z,97022.00
2022-10-12T10:06:43.790Z,97029.00
2022-10-12T10:10:50.645Z,97031.00
2022-10-12T10:15:29.188Z,97026.00
2022-10-12T10:19:33.930Z,97030.00
2022-10-12T10:24:09.526Z,97021.00
2022-10-12T10:28:22.450Z,97028.00
2022-10-12T10:32:29.029Z,97024.00
2022-10-12T10:36:45.565Z,97026.00
2022-10-12T10:41:18.141Z,97021.00
2022-10-12T10:45:53.681Z,97024.00
2022-10-12T10:49:59.438Z,97019.00
2022-10-12T10:54:15.202Z,97015.00
2022-10-12T10:58:38.799Z,97015.00
2022-10-12T11:03:14.322Z,97013.00
2022-10-12T11:07:48.401Z,97010.00
2022-10-12T11:12:14.574Z,97007.00
2022-10-12T11:16:30.598Z,97006.00
2022-10-12T11:20:44.786Z,97000.00
2022-10-12T11:25:14.322Z,97003.00
2022-10-12T11:29:19.463Z,97003.00
2022-10-12T11:33:26.480Z,96984.00
2022-10-12T11:38:01.781Z,97001.00
2022-10-12T11:42:21.264Z,96984.00
2022-10-12T11:46:44.119Z,96977.00
2022-10-12T11:50:49.719Z,96986.00
2022-10-12T11:55:31.182Z,96978.00
2022-10-12T12:00:06.568Z,96978.00
2022-10-12T12:04:48.248Z,96975.00
2022-10-12T12:08:58.347Z,96979.00
2022-10-12T12:13:32.944Z,96966.00
2022-10-12T12:18:12.357Z,96972.00
2022-10-12T12:22:34.334Z,96958.00
2022-10-12T12:26:55.780Z,96959.00
2022-10-12T12:31:01.395Z,96953.00
2022-10-12T12:35:05.102Z,96951.00
2022-10-12T12:39:41.435Z,96950.00
2022-10-12T12:44:30.031Z,96953.00
2022-10-12T12:48:58.815Z,96948.00
2022-10-12T12:53:32.199Z,96950.00
2022-10-12T12:57:48.465Z,96941.00
2022-10-12T13:02:20.465Z,96935.00
2022-10-12T13:07:09.031Z,96943.00
2022-10-12T13:11:45.823Z,96938.00
2022-10-12T13:16:00.924Z,96925.00
2022-10-12T13:20:27.870Z,96922.00
2022-10-12T13:24:35.608Z,96920.00
2022-10-12T13:29:08.784Z,96928.00
2022-10-12T13:34:06.607Z,96931.00
2022-10-12T13:38:21.823Z,96935.00
2022-10-12T13:42:46.560Z,96928.00
2022-10-12T13:47:24.767Z,96926.00
2022-10-12T13:52:00.490Z,96926.00
2022-10-12T13:56:33.740Z,96923.00
2022-10-12T14:00:38.392Z,96917.00
2022-10-12T14:05:18.096Z,96908.00
2022-10-12T14:09:51.027Z,96910.00
2022-10-12T14:14:31.323Z,96902.00
2022-10-12T14:19:17.091Z,96900.00
2022-10-12T14:23:43.358Z,96906.00
2022-10-12T14:28:22.602Z,96903.00
2022-10-12T14:32:52.330Z,96894.00
2022-10-12T14:37:26.483Z,96896.00
2022-10-12T14:42:03.590Z,96892.00
2022-10-12T14:46:37.491Z,96889.00
2022-10-12T14:51:18.260Z,96882.00
2022-10-12T14:55:24.199Z,96893.00
2022-10-12T14:59:28.745Z,96890.00
2022-10-12T15:04:02.178Z,96893.00
2022-10-12T15:08:09.001Z,96890.00
2022-10-12T15:12:39.785Z,96890.00
2022-10-12T15:17:16.832Z,96887.00
2022-10-12T15:21:21.603Z,96886.00
2022-10-12T15:25:27.550Z,96877.00
2022-10-12T15:30:01.587Z,96877.00
2022-10-12T15:34:59.536Z,96873.00
2022-10-12T15:39:38.240Z,96872.00
2022-10-12T15:43:51.881Z,96875.00
2022-10-12T15:47:57.505Z,96874.00
2022-10-12T15:52:31.292Z,96880.00
2022-10-12T15:56:41.749Z,96875.00
2022-10-12T16:01:13.396Z,96868.00
2022-10-12T16:05:47.374Z,96870.00
2022-10-12T16:09:50.458Z,96870.00
2022-10-12T16:13:56.943Z,96868.00
2022-10-12T16:18:27.873Z,96874.00
2022-10-12T16:23:06.139Z,96874.00
2022-10-12T16:27:40.472Z,96877.00
2022-10-12T16:32:17.209Z,96884.00
2022-10-12T16:36:55.706Z,96876.00
2022-10-12T16:41:31.844Z,96881.00
2022-10-12T16:46:04.744Z,96889.00
2022-10-12T16:50:08.217Z,96888.00
2022-10-12T16:54:46.870Z,96888.00
2022-10-12T16:58:50.086Z,96892.00
2022-10-12T17:03:27.675Z,96893.00
2022-10-12T17:07:31.146Z,96884.00
2022-10-12T17:11:37.416Z,96896.00
2022-10-12T17:15:42.374Z,96902.00
2022-10-12T17:20:16.186Z,96903.00
2022-10-12T17:24:53.116Z,96913.00
2022-10-12T17:29:32.466Z,96916.00
2022-10-12T17:34:07.297Z,96915.00
2022-10-12T17:38:41.218Z,96916.00
2022-10-12T17:43:18.265Z,96912.00
2022-10-12T17:47:56.924Z,96920.00
2022-10-12T17:52:33.825Z,96918.00
2022-10-12T17:57:10.751Z,96908.00
2022-10-12T18:01:47.731Z,96906.00
2022-10-12T18:06:26.140Z,96906.00
2022-10-12T18:11:00.398Z,96903.00
2022-10-12T18:15:42.134Z,96912.00
2022-10-12T18:20:13.375Z,96914.00
2022-10-12T18:24:51.550Z,96914.00
2022-10-12T18:29:25.793Z,96913.00
2022-10-12T18:34:02.604Z,96918.00
2022-10-12T18:38:39.476Z,96916.00
2022-10-12T18:42:44.013Z,96924.00
2022-10-12T18:47:24.274Z,96919.00
2022-10-12T18:51:58.349Z,96914.00
2022-10-12T18:56:04.126Z,96911.00
2022-10-12T19:00:11.109Z,96914.00
2022-10-12T19:04:44.643Z,96913.00
2022-10-12T19:09:21.437Z,96916.00
2022-10-12T19:13:30.635Z,96918.00
2022-10-12T19:18:08.995Z,96913.00
2022-10-12T19:22:49.756Z,96921.00
2022-10-12T19:26:52.835Z,96922.00
2022-10-12T19:30:55.957Z,96920.00
2022-10-12T19:35:36.854Z,96919.00
2022-10-12T19:39:44.736Z,96921.00
2022-10-12T19:44:15.420Z,96920.00
2022-10-12T19:48:53.228Z,96913.00
2022-10-12T19:53:28.693Z,96923.00
2022-10-12T19:58:02.613Z,96924.00
2022-10-12T20:02:41.373Z,96927.00
2022-10-12T20:07:15.099Z,96927.00
2022-10-12T20:11:53.526Z,96927.00
2022-10-12T20:16:31.177Z,96924.00
2022-10-12T20:21:01.683Z,96933.00
2022-10-12T20:25:09.292Z,96927.00
2022-10-12T20:29:42.638Z,96935.00
2022-10-12T20:33:45.670Z,96930.00
2022-10-12T20:37:48.788Z,96925.00
2022-10-12T20:42:25.926Z,96929.00
2022-10-12T20:46:31.587Z,96933.00
2022-10-12T20:51:06.651Z,96929.00
2022-10-12T20:55:10.992Z,96930.00
2022-10-12T20:59:45.733Z,96923.00
2022-10-12T21:03:50.311Z,96905.00
2022-10-12T21:08:24.149Z,96911.00
2022-10-12T21:12:27.526Z,96918.00
2022-10-12T21:16:31.010Z,96921.00
2022-10-12T21:21:04.452Z,96914.00
2022-10-12T21:25:09.947Z,96913.00
2022-10-12T21:29:13.615Z,96918.00
2022-10-12T21:33:47.861Z,96898.00
2022-10-12T21:37:50.926Z,96899.00
2022-10-12T21:41:55.394Z,96892.00
2022-10-12T21:46:03.912Z,96897.00
2022-10-12T21:50:09.529Z,96899.00
2022-10-12T21:54:12.686Z,96901.00
2022-10-12T21:58:17.154Z,96895.00
2022-10-12T22:02:20.767Z,96895.00
2022-10-12T22:06:25.336Z,96907.00
2022-10-12T22:10:28.411Z,96906.00
2022-10-12T22:14:32.894Z,96897.00
2022-10-12T22:19:06.438Z,96890.00
2022-10-12T22:23:09.459Z,96886.00
2022-10-12T22:27:12.486Z,96890.00
2022-10-12T22:31:19.158Z,96883.00
2022-10-12T22:35:50.230Z,96877.00
2022-10-12T22:39:53.414Z,96879.00
2022-10-12T22:43:57.402Z,96876.00
2022-10-12T22:48:33.122Z,96871.00
2022-10-12T22:52:36.236Z,96875.00
2022-10-12T22:56:39.556Z,96864.00
2022-10-12T23:00:43.302Z,96859.00
2022-10-12T23:04:48.764Z,96867.00
2022-10-12T23:09:22.074Z,96860.00
2022-10-12T23:13:25.136Z,96873.00
2022-10-12T23:17:28.177Z,96875.00
2022-10-12T23:22:06.252Z,96866.00
2022-10-12T23:26:11.186Z,96859.00
2022-10-12T23:30:14.590Z,96859.00
2022-10-12T23:34:51.342Z,96857.00
2022-10-12T23:38:56.045Z,96859.00
2022-10-12T23:43:30.440Z,96857.00
2022-10-12T23:47:33.696Z,96864.00
2022-10-12T23:51:36.898Z,96862.00
2022-10-12T23:56:12.497Z,96864.00
